createdAt,value
2022-10-06T00:01:17.648Z,11.72
2022-10-06T00:03:40.496Z,11.69
2022-10-06T00:06:03.891Z,11.62
2022-10-06T00:08:27.067Z,11.69
2022-10-06T00:10:49.925Z,11.61
2022-10-06T00:13:12.769Z,11.50
2022-10-06T00:15:35.602Z,11.32
2022-10-06T00:17:58.753Z,11.38
2022-10-06T00:20:21.331Z,11.37
2022-10-06T00:22:48.101Z,11.45
2022-10-06T00:25:13.156Z,11.37
2022-10-06T00:27:38.959Z,11.50
2022-10-06T00:30:02.220Z,11.48
2022-10-06T00:32:24.904Z,11.55
2022-10-06T00:34:47.615Z,11.62
2022-10-06T00:37:10.160Z,11.64
2022-10-06T00:39:33.024Z,11.65
2022-10-06T00:41:55.584Z,11.48
2022-10-06T00:44:18.861Z,11.48
2022-10-06T00:46:46.240Z,11.52
2022-10-06T00:49:22.113Z,11.58
2022-10-06T00:51:51.645Z,11.59
2022-10-06T00:54:15.135Z,11.61
2022-10-06T00:56:40.132Z,11.41
2022-10-06T00:59:02.662Z,11.31
2022-10-06T01:01:27.195Z,11.30
2022-10-06T01:03:57.643Z,11.32
2022-10-06T01:06:20.327Z,11.23
2022-10-06T01:08:42.989Z,11.17
2022-10-06T01:11:06.728Z,11.16
2022-10-06T01:13:30.701Z,11.14
2022-10-06T01:16:22.649Z,11.18
2022-10-06T01:18:47.831Z,11.07
2022-10-06T01:21:28.079Z,10.96
2022-10-06T01:23:51.089Z,10.73
2022-10-06T01:26:16.013Z,10.76
2022-10-06T01:28:39.536Z,10.65
2022-10-06T01:31:02.916Z,10.72
2022-10-06T01:33:27.457Z,10.73
2022-10-06T01:35:52.171Z,10.79
2022-10-06T01:38:14.981Z,10.80
2022-10-06T01:40:37.535Z,10.81
2022-10-06T01:43:00.136Z,10.81
2022-10-06T01:45:23.648Z,10.81
2022-10-06T01:47:46.307Z,10.80
2022-10-06T01:50:09.207Z,10.69
2022-10-06T01:52:31.917Z,10.66
2022-10-06T01:54:54.746Z,10.37
2022-10-06T01:57:17.787Z,10.31
2022-10-06T01:59:41.030Z,10.22
2022-10-06T02:02:04.640Z,10.28
2022-10-06T02:04:27.740Z,10.40
2022-10-06T02:06:51.622Z,10.45
2022-10-06T02:09:14.118Z,10.46
2022-10-06T02:11:38.711Z,10.41
2022-10-06T02:14:02.348Z,10.42
2022-10-06T02:16:26.676Z,10.49
2022-10-06T02:18:49.605Z,10.34
2022-10-06T02:21:20.044Z,10.22
2022-10-06T02:23:42.583Z,10.20
2022-10-06T02:26:07.282Z,10.31
2022-10-06T02:28:32.102Z,10.41
2022-10-06T02:31:06.294Z,10.31
2022-10-06T02:33:30.194Z,10.21
2022-10-06T02:35:56.766Z,10.25
2022-10-06T02:38:20.359Z,10.14
2022-10-06T02:40:44.113Z,10.24
2022-10-06T02:43:06.652Z,10.17
2022-10-06T02:45:31.113Z,10.08
2022-10-06T02:47:54.706Z,10.01
2022-10-06T02:50:17.674Z,10.11
2022-10-06T02:52:43.044Z,10.07
2022-10-06T02:55:07.756Z,10.10
2022-10-06T02:57:30.495Z,10.14
2022-10-06T02:59:54.158Z,10.03
2022-10-06T03:02:16.855Z,10.11
2022-10-06T03:04:39.952Z,10.15
2022-10-06T03:07:02.726Z,10.11
2022-10-06T03:09:30.768Z,10.03
2022-10-06T03:11:53.536Z,10.00
2022-10-06T03:14:23.143Z,9.82
2022-10-06T03:16:46.496Z,9.77
2022-10-06T03:19:14.833Z,9.84
2022-10-06T03:21:42.857Z,9.87
2022-10-06T03:24:06.750Z,9.97
2022-10-06T03:26:31.857Z,9.90
2022-10-06T03:28:55.973Z,9.87
2022-10-06T03:31:25.653Z,9.82
2022-10-06T03:33:48.334Z,9.94
2022-10-06T03:36:13.270Z,9.95
2022-10-06T03:38:36.991Z,10.03
2022-10-06T03:41:24.826Z,9.91
2022-10-06T03:43:49.385Z,9.87
2022-10-06T03:46:14.150Z,9.79
2022-10-06T03:48:36.803Z,9.80
2022-10-06T03:51:01.701Z,9.94
2022-10-06T03:53:28.016Z,9.84
2022-10-06T03:55:50.946Z,9.90
2022-10-06T03:58:17.344Z,9.93
2022-10-06T04:00:40.452Z,9.95
2022-10-06T04:03:03.132Z,9.93
2022-10-06T04:05:26.671Z,9.90
2022-10-06T04:07:49.349Z,9.91
2022-10-06T04:10:12.688Z,10.00
2022-10-06T04:12:36.183Z,9.97
2022-10-06T04:15:00.203Z,9.93
2022-10-06T04:17:23.978Z,9.93
2022-10-06T04:19:46.556Z,9.93
2022-10-06T04:22:09.328Z,9.89
2022-10-06T04:24:32.016Z,9.97
2022-10-06T04:27:14.584Z,9.91
2022-10-06T04:29:39.060Z,9.83
2022-10-06T04:32:02.448Z,9.77
2022-10-06T04:34:29.087Z,9.77
2022-10-06T04:36:52.107Z,9.80
2022-10-06T04:39:14.984Z,9.79
2022-10-06T04:41:42.246Z,9.65
2022-10-06T04:44:07.708Z,9.57
2022-10-06T04:46:42.731Z,9.52
2022-10-06T04:49:07.473Z,9.55
2022-10-06T04:51:31.439Z,9.65
2022-10-06T04:53:55.788Z,9.59
2022-10-06T04:56:21.606Z,9.60
2022-10-06T04:58:49.197Z,9.70
2022-10-06T05:01:16.714Z,9.80
2022-10-06T05:03:39.457Z,9.73
2022-10-06T05:06:08.091Z,9.72
2022-10-06T05:08:31.471Z,9.80
2022-10-06T05:11:06.439Z,9.83
2022-10-06T05:13:29.403Z,9.89
2022-10-06T05:15:59.544Z,9.87
2022-10-06T05:18:24.319Z,9.87
2022-10-06T05:20:55.682Z,9.97
2022-10-06T05:23:18.807Z,10.00
2022-10-06T05:25:51.655Z,10.05
2022-10-06T05:28:14.771Z,10.08
2022-10-06T05:30:37.561Z,10.13
2022-10-06T05:33:00.261Z,10.17
2022-10-06T05:35:23.388Z,10.21
2022-10-06T05:37:46.498Z,10.00
2022-10-06T05:40:11.662Z,10.20
2022-10-06T05:42:34.877Z,10.22
2022-10-06T05:44:57.515Z,10.07
2022-10-06T05:47:20.865Z,9.98
2022-10-06T05:49:43.839Z,10.07
2022-10-06T05:52:07.123Z,10.14
2022-10-06T05:54:32.298Z,10.27
2022-10-06T05:56:55.155Z,10.35
2022-10-06T05:59:18.487Z,10.45
2022-10-06T06:01:43.671Z,10.51
2022-10-06T06:04:14.330Z,10.55
2022-10-06T06:06:43.907Z,10.69
2022-10-06T06:09:15.270Z,10.63
2022-10-06T06:11:41.920Z,10.51
2022-10-06T06:14:16.650Z,10.52
2022-10-06T06:16:40.855Z,10.81
2022-10-06T06:19:03.987Z,10.84
2022-10-06T06:21:27.472Z,11.03
2022-10-06T06:23:50.204Z,10.89
2022-10-06T06:26:14.918Z,10.84
2022-10-06T06:28:41.548Z,10.95
2022-10-06T06:31:07.387Z,11.08
2022-10-06T06:33:40.849Z,11.08
2022-10-06T06:36:15.403Z,11.28
2022-10-06T06:38:38.524Z,11.44
2022-10-06T06:41:01.901Z,11.68
2022-10-06T06:43:24.640Z,11.92
2022-10-06T06:46:10.857Z,12.00
2022-10-06T06:48:55.527Z,11.89
2022-10-06T06:51:24.041Z,12.10
2022-10-06T06:53:46.750Z,11.72
2022-10-06T06:56:10.187Z,12.00
2022-10-06T06:58:33.602Z,12.21
2022-10-06T07:01:13.826Z,12.30
2022-10-06T07:03:56.582Z,12.29
2022-10-06T07:06:23.501Z,12.62
2022-10-06T07:08:49.706Z,12.68
2022-10-06T07:11:14.805Z,12.89
2022-10-06T07:13:39.749Z,12.88
2022-10-06T07:16:20.965Z,12.92
2022-10-06T07:19:02.677Z,13.28
2022-10-06T07:21:44.419Z,13.40
2022-10-06T07:24:27.975Z,13.55
2022-10-06T07:26:50.603Z,13.48
2022-10-06T07:29:13.284Z,13.98
2022-10-06T07:31:36.798Z,14.41
2022-10-06T07:34:01.179Z,15.28
2022-10-06T07:36:24.959Z,16.29
2022-10-06T07:38:49.003Z,16.81
2022-10-06T07:41:20.762Z,17.25
2022-10-06T07:43:53.713Z,18.48
2022-10-06T07:46:34.949Z,19.47
2022-10-06T07:49:17.319Z,20.06
2022-10-06T07:51:43.039Z,20.40
2022-10-06T07:54:07.001Z,19.96
2022-10-06T07:56:47.031Z,19.10
2022-10-06T07:59:09.601Z,18.41
2022-10-06T08:01:32.293Z,17.32
2022-10-06T08:04:00.152Z,17.08
2022-10-06T08:06:25.321Z,17.07
2022-10-06T08:09:29.965Z,16.73
2022-10-06T08:11:54.465Z,16.38
2022-10-06T08:14:17.132Z,16.17
2022-10-06T08:16:39.816Z,15.87
2022-10-06T08:19:02.565Z,15.89
2022-10-06T08:21:30.859Z,16.19
2022-10-06T08:23:54.395Z,16.32
2022-10-06T08:26:19.140Z,16.28
2022-10-06T08:28:45.854Z,16.35
2022-10-06T08:31:11.688Z,16.49
2022-10-06T08:33:35.998Z,16.42
2022-10-06T08:36:09.910Z,16.51
2022-10-06T08:38:32.539Z,16.60
2022-10-06T08:40:55.060Z,16.33
2022-10-06T08:43:20.526Z,16.32
2022-10-06T08:45:45.831Z,16.52
2022-10-06T08:48:16.950Z,16.79
2022-10-06T08:51:10.637Z,17.02
2022-10-06T08:54:11.176Z,17.25
2022-10-06T08:56:54.528Z,17.42
2022-10-06T08:59:17.650Z,17.62
2022-10-06T09:01:50.736Z,17.75
2022-10-06T09:04:28.413Z,17.31
2022-10-06T09:07:00.006Z,17.39
2022-10-06T09:09:45.906Z,17.24
2022-10-06T09:12:18.086Z,17.02
2022-10-06T09:14:49.206Z,17.00
2022-10-06T09:17:19.714Z,17.46
2022-10-06T09:19:55.248Z,17.71
2022-10-06T09:22:21.607Z,17.89
2022-10-06T09:24:50.484Z,18.13
2022-10-06T09:27:20.404Z,18.14
2022-10-06T09:29:43.113Z,18.38
2022-10-06T09:32:06.837Z,18.61
2022-10-06T09:34:51.475Z,18.11
2022-10-06T09:37:14.677Z,18.17
2022-10-06T09:39:39.777Z,18.38
2022-10-06T09:42:17.494Z,18.27
2022-10-06T09:44:52.367Z,18.43
2022-10-06T09:47:32.016Z,18.62
2022-10-06T09:50:27.688Z,18.55
2022-10-06T09:53:03.509Z,18.89
2022-10-06T09:55:38.187Z,18.95
2022-10-06T09:58:02.903Z,19.00
2022-10-06T10:00:36.215Z,19.46
2022-10-06T10:03:02.896Z,19.95
2022-10-06T10:05:30.913Z,20.36
2022-10-06T10:08:18.597Z,20.75
2022-10-06T10:10:41.505Z,20.84
2022-10-06T10:13:18.895Z,20.95
2022-10-06T10:15:54.811Z,20.15
2022-10-06T10:18:23.024Z,20.19
2022-10-06T10:20:59.267Z,20.44
2022-10-06T10:23:31.066Z,20.60
2022-10-06T10:26:27.067Z,20.75
2022-10-06T10:28:52.267Z,20.83
2022-10-06T10:31:24.103Z,20.64
2022-10-06T10:34:24.999Z,20.67
2022-10-06T10:36:53.378Z,20.70
2022-10-06T10:39:52.497Z,20.68
2022-10-06T10:42:39.747Z,20.53
2022-10-06T10:45:07.813Z,20.46
2022-10-06T10:47:36.844Z,20.60
2022-10-06T10:50:11.810Z,20.58
2022-10-06T10:52:42.530Z,20.47
2022-10-06T10:55:26.830Z,20.44
2022-10-06T10:57:51.182Z,20.54
2022-10-06T11:00:25.376Z,20.64
2022-10-06T11:02:48.630Z,20.53
2022-10-06T11:05:55.828Z,20.73
2022-10-06T11:08:43.040Z,20.91
2022-10-06T11:11:42.271Z,21.13
2022-10-06T11:14:13.543Z,21.26
2022-10-06T11:16:42.113Z,21.46
2022-10-06T11:19:16.853Z,21.38
2022-10-06T11:21:54.843Z,21.54
2022-10-06T11:24:32.974Z,21.39
2022-10-06T11:27:01.156Z,21.51
2022-10-06T11:29:43.311Z,21.53
2022-10-06T11:32:21.678Z,21.57
2022-10-06T11:34:48.967Z,21.70
2022-10-06T11:37:38.817Z,21.69
2022-10-06T11:40:23.332Z,21.81
2022-10-06T11:42:53.235Z,21.98
2022-10-06T11:45:17.379Z,22.18
2022-10-06T11:48:22.298Z,21.71
2022-10-06T11:50:51.234Z,21.94
2022-10-06T11:53:32.299Z,22.18
2022-10-06T11:56:15.539Z,22.16
2022-10-06T11:58:58.330Z,22.01
2022-10-06T12:01:53.435Z,22.01
2022-10-06T12:04:20.634Z,22.25
2022-10-06T12:06:46.026Z,22.55
2022-10-06T12:09:23.807Z,22.86
2022-10-06T12:11:46.460Z,22.91
2022-10-06T12:17:43.171Z,23.21
2022-10-06T12:20:22.387Z,23.37
2022-10-06T12:22:51.094Z,23.37
2022-10-06T12:25:17.065Z,23.45
2022-10-06T12:28:06.211Z,23.07
2022-10-06T12:30:45.868Z,23.06
2022-10-06T12:33:16.860Z,23.01
2022-10-06T12:35:42.816Z,23.21
2022-10-06T12:38:26.660Z,23.11
2022-10-06T12:40:51.912Z,23.06
2022-10-06T12:43:23.023Z,23.00
2022-10-06T12:45:54.630Z,23.00
2022-10-06T12:48:47.730Z,23.07
2022-10-06T12:51:13.105Z,23.08
2022-10-06T12:54:06.197Z,23.20
2022-10-06T12:56:31.515Z,23.12
2022-10-06T12:58:55.862Z,22.90
2022-10-06T13:01:19.153Z,22.90
2022-10-06T13:03:48.699Z,22.94
2022-10-06T13:06:11.887Z,22.80
2022-10-06T13:08:36.581Z,22.86
2022-10-06T13:11:17.828Z,22.84
2022-10-06T13:14:12.833Z,22.76
2022-10-06T13:16:40.983Z,22.53
2022-10-06T13:19:03.773Z,22.49
2022-10-06T13:21:29.969Z,22.56
2022-10-06T13:23:52.739Z,22.35
2022-10-06T13:26:15.265Z,22.46
2022-10-06T13:28:43.846Z,22.59
2022-10-06T13:31:21.877Z,22.51
2022-10-06T13:33:45.887Z,22.48
2022-10-06T13:36:10.881Z,22.22
2022-10-06T13:38:35.932Z,21.77
2022-10-06T13:41:13.811Z,21.78
2022-10-06T13:43:43.202Z,21.95
2022-10-06T13:46:13.958Z,21.98
2022-10-06T13:48:37.783Z,21.98
2022-10-06T13:51:03.424Z,21.94
2022-10-06T13:53:30.503Z,21.97
2022-10-06T13:55:54.088Z,21.95
2022-10-06T13:58:18.368Z,21.88
2022-10-06T14:00:56.027Z,22.04
2022-10-06T14:06:15.954Z,22.15
2022-10-06T14:08:38.773Z,22.14
2022-10-06T14:11:05.071Z,22.11
2022-10-06T14:13:32.328Z,22.01
2022-10-06T14:15:59.021Z,21.97
2022-10-06T14:18:28.066Z,22.00
2022-10-06T14:20:57.272Z,21.93
2022-10-06T14:23:48.248Z,21.97
2022-10-06T14:26:12.995Z,21.87
2022-10-06T14:28:35.557Z,21.78
2022-10-06T14:30:59.033Z,21.90
2022-10-06T14:33:21.431Z,21.95
2022-10-06T14:35:44.118Z,21.94
2022-10-06T14:38:06.620Z,21.69
2022-10-06T14:40:29.247Z,21.71
2022-10-06T14:42:51.796Z,21.81
2022-10-06T14:45:14.444Z,21.83
2022-10-06T14:47:37.361Z,21.73
2022-10-06T14:50:00.408Z,21.56
2022-10-06T14:52:23.091Z,21.54
2022-10-06T14:54:46.435Z,21.53
2022-10-06T14:57:09.778Z,21.46
2022-10-06T14:59:32.738Z,21.26
2022-10-06T15:01:55.461Z,21.11
2022-10-06T15:04:20.432Z,21.16
2022-10-06T15:07:01.636Z,20.96
2022-10-06T15:09:24.248Z,20.81
2022-10-06T15:11:46.881Z,20.65
2022-10-06T15:14:09.972Z,20.56
2022-10-06T15:16:33.784Z,20.37
2022-10-06T15:18:58.770Z,20.29
2022-10-06T15:21:23.852Z,20.29
2022-10-06T15:23:48.113Z,20.25
2022-10-06T15:26:29.831Z,20.12
2022-10-06T15:29:01.820Z,19.96
2022-10-06T15:31:25.435Z,19.79
2022-10-06T15:33:52.312Z,19.79
2022-10-06T15:36:18.763Z,19.77
2022-10-06T15:38:41.332Z,19.65
2022-10-06T15:41:04.647Z,19.65
2022-10-06T15:43:47.093Z,19.47
2022-10-06T15:46:11.682Z,19.38
2022-10-06T15:48:34.339Z,19.31
2022-10-06T15:50:57.178Z,19.27
2022-10-06T15:53:22.503Z,19.23
2022-10-06T15:55:45.001Z,19.10
2022-10-06T15:58:07.499Z,19.06
2022-10-06T16:00:30.265Z,18.95
2022-10-06T16:02:52.769Z,18.85
2022-10-06T16:05:44.815Z,18.77
2022-10-06T16:08:07.424Z,18.77
2022-10-06T16:10:29.988Z,18.75
2022-10-06T16:12:52.511Z,18.69
2022-10-06T16:15:15.272Z,18.66
2022-10-06T16:17:37.743Z,18.59
2022-10-06T16:20:00.748Z,18.54
2022-10-06T16:22:23.359Z,18.52
2022-10-06T16:24:45.860Z,18.48
2022-10-06T16:27:12.919Z,18.45
2022-10-06T16:29:35.445Z,18.38
2022-10-06T16:31:59.308Z,18.41
2022-10-06T16:34:22.430Z,18.30
2022-10-06T16:36:45.914Z,18.17
2022-10-06T16:39:16.650Z,18.20
2022-10-06T16:41:39.453Z,18.23
2022-10-06T16:44:02.131Z,18.28
2022-10-06T16:46:26.608Z,18.28
2022-10-06T16:48:51.321Z,18.18
2022-10-06T16:51:22.664Z,18.07
2022-10-06T16:53:46.660Z,18.03
2022-10-06T16:56:15.847Z,17.99
2022-10-06T16:58:43.232Z,17.93
2022-10-06T17:01:06.318Z,17.86
2022-10-06T17:03:28.794Z,17.78
2022-10-06T17:05:51.266Z,17.80
2022-10-06T17:08:13.704Z,17.82
2022-10-06T17:10:36.894Z,17.80
2022-10-06T17:12:59.362Z,17.89
2022-10-06T17:15:22.139Z,17.85
2022-10-06T17:17:44.740Z,17.85
2022-10-06T17:20:08.556Z,17.86
2022-10-06T17:22:31.056Z,17.89
2022-10-06T17:24:53.477Z,17.82
2022-10-06T17:27:16.098Z,17.75
2022-10-06T17:29:39.132Z,17.69
2022-10-06T17:32:02.738Z,17.65
2022-10-06T17:34:29.130Z,17.63
2022-10-06T17:36:54.888Z,17.68
2022-10-06T17:39:21.946Z,17.55
2022-10-06T17:41:46.318Z,17.59
2022-10-06T17:44:13.363Z,17.53
2022-10-06T17:46:40.677Z,17.52
2022-10-06T17:49:07.624Z,17.48
2022-10-06T17:51:30.243Z,17.45
2022-10-06T17:53:58.066Z,17.48
2022-10-06T17:56:23.380Z,17.42
2022-10-06T17:58:56.744Z,17.38
2022-10-06T18:01:19.387Z,17.35
2022-10-06T18:03:42.886Z,17.39
2022-10-06T18:06:31.874Z,17.31
2022-10-06T18:08:56.154Z,17.34
2022-10-06T18:11:38.669Z,17.32
2022-10-06T18:14:22.276Z,17.28
2022-10-06T18:16:59.138Z,17.20
2022-10-06T18:19:34.048Z,17.18
2022-10-06T18:21:59.730Z,17.04
2022-10-06T18:24:25.539Z,16.99
2022-10-06T18:26:49.943Z,17.03
2022-10-06T18:29:12.550Z,17.04
2022-10-06T18:31:35.850Z,17.02
2022-10-06T18:36:42.995Z,16.91
2022-10-06T18:39:07.267Z,16.94
2022-10-06T18:41:59.147Z,16.91
2022-10-06T18:44:40.480Z,16.94
2022-10-06T18:47:22.345Z,16.86
2022-10-06T18:50:06.762Z,16.80
2022-10-06T18:52:29.362Z,16.84
2022-10-06T18:54:51.905Z,16.80
2022-10-06T18:57:14.557Z,16.76
2022-10-06T18:59:37.802Z,16.70
2022-10-06T19:02:00.675Z,16.59
2022-10-06T19:04:24.161Z,16.58
2022-10-06T19:06:50.029Z,16.76
2022-10-06T19:09:17.518Z,16.69
2022-10-06T19:11:48.643Z,16.72
2022-10-06T19:14:13.204Z,16.73
2022-10-06T19:16:36.090Z,16.73
2022-10-06T19:18:59.124Z,16.86
2022-10-06T19:21:21.707Z,16.83
2022-10-06T19:23:44.645Z,16.76
2022-10-06T19:26:11.104Z,16.76
2022-10-06T19:28:34.458Z,16.51
2022-10-06T19:31:02.796Z,16.56
2022-10-06T19:33:26.869Z,16.52
2022-10-06T19:35:54.359Z,16.55
2022-10-06T19:38:17.151Z,16.53
2022-10-06T19:40:39.679Z,16.53
2022-10-06T19:43:02.309Z,16.52
2022-10-06T19:45:24.917Z,16.51
2022-10-06T19:47:47.961Z,16.48
2022-10-06T19:50:12.822Z,16.42
2022-10-06T19:52:37.035Z,16.44
2022-10-06T19:55:00.783Z,16.44
2022-10-06T19:57:23.364Z,16.38
2022-10-06T19:59:45.901Z,16.42
2022-10-06T20:02:10.118Z,16.35
2022-10-06T20:05:08.284Z,16.25
2022-10-06T20:07:30.917Z,16.15
2022-10-06T20:09:54.018Z,16.01
2022-10-06T20:12:18.741Z,16.01
2022-10-06T20:14:44.665Z,15.84
2022-10-06T20:17:07.220Z,15.84
2022-10-06T20:19:30.998Z,15.83
2022-10-06T20:21:53.917Z,15.76
2022-10-06T20:24:22.877Z,15.64
2022-10-06T20:26:50.494Z,15.60
2022-10-06T20:29:15.265Z,15.60
2022-10-06T20:31:43.726Z,15.50
2022-10-06T20:34:08.542Z,15.46
2022-10-06T20:36:32.411Z,15.38
2022-10-06T20:39:14.260Z,15.40
2022-10-06T20:41:46.097Z,15.43
2022-10-06T20:44:09.123Z,15.39
2022-10-06T20:46:34.143Z,15.40
2022-10-06T20:49:04.234Z,15.43
2022-10-06T20:51:27.862Z,15.43
2022-10-06T20:53:50.663Z,15.43
2022-10-06T20:56:13.891Z,15.43
2022-10-06T20:58:36.736Z,15.38
2022-10-06T21:01:11.132Z,15.31
2022-10-06T21:03:35.161Z,15.29
2022-10-06T21:05:57.842Z,15.25
2022-10-06T21:08:20.354Z,15.21
2022-10-06T21:10:44.015Z,15.12
2022-10-06T21:13:06.875Z,14.91
2022-10-06T21:15:29.980Z,14.84
2022-10-06T21:17:58.952Z,14.89
2022-10-06T21:20:21.791Z,14.81
2022-10-06T21:22:44.465Z,14.73
2022-10-06T21:25:07.786Z,14.66
2022-10-06T21:27:30.614Z,14.71
2022-10-06T21:29:53.419Z,14.76
2022-10-06T21:32:15.981Z,14.74
2022-10-06T21:34:39.320Z,14.71
2022-10-06T21:37:02.386Z,14.74
2022-10-06T21:39:24.856Z,14.66
2022-10-06T21:41:47.282Z,14.61
2022-10-06T21:44:19.066Z,14.66
2022-10-06T21:46:45.923Z,14.67
2022-10-06T21:49:13.521Z,14.63
2022-10-06T21:51:36.165Z,14.59
2022-10-06T21:54:00.352Z,14.56
2022-10-06T21:56:23.711Z,14.56
2022-10-06T21:58:53.355Z,14.50
2022-10-06T22:01:16.034Z,14.43
2022-10-06T22:03:39.222Z,14.49
2022-10-06T22:06:06.232Z,14.49
2022-10-06T22:08:31.815Z,14.51
2022-10-06T22:10:54.314Z,14.51
2022-10-06T22:13:16.822Z,14.50
2022-10-06T22:15:39.371Z,14.57
2022-10-06T22:18:02.273Z,14.44
2022-10-06T22:20:24.774Z,14.60
2022-10-06T22:22:47.182Z,14.63
2022-10-06T22:25:09.874Z,14.71
2022-10-06T22:27:32.857Z,14.76
2022-10-06T22:29:55.602Z,14.73
2022-10-06T22:32:19.513Z,14.73
2022-10-06T22:34:42.076Z,14.61
2022-10-06T22:37:04.533Z,14.59
2022-10-06T22:39:26.982Z,14.61
2022-10-06T22:41:49.515Z,14.63
2022-10-06T22:44:12.042Z,14.57
2022-10-06T22:46:36.252Z,14.59
2022-10-06T22:48:58.989Z,14.46
2022-10-06T22:51:22.312Z,14.47
2022-10-06T22:53:45.129Z,14.40
2022-10-06T22:56:07.980Z,14.46
2022-10-06T22:58:30.965Z,14.41
2022-10-06T23:00:53.714Z,14.44
2022-10-06T23:03:19.909Z,14.46
2022-10-06T23:05:42.402Z,14.46
2022-10-06T23:08:06.263Z,14.43
2022-10-06T23:10:30.375Z,14.43
2022-10-06T23:12:54.790Z,14.44
2022-10-06T23:15:17.250Z,14.41
2022-10-06T23:17:40.739Z,14.43
2022-10-06T23:20:04.407Z,14.43
2022-10-06T23:22:27.493Z,14.37
2022-10-06T23:24:50.048Z,14.47
2022-10-06T23:27:14.281Z,14.40
2022-10-06T23:29:37.250Z,14.47
2022-10-06T23:31:59.890Z,14.46
2022-10-06T23:34:22.416Z,14.50
2022-10-06T23:36:44.983Z,14.44
2022-10-06T23:39:07.517Z,14.46
2022-10-06T23:41:29.982Z,14.43
2022-10-06T23:43:52.486Z,14.32
2022-10-06T23:46:15.238Z,14.29
2022-10-06T23:48:37.877Z,14.09
2022-10-06T23:51:02.869Z,14.15
2022-10-06T23:53:26.135Z,14.26
2022-10-06T23:55:48.698Z,14.26
2022-10-06T23:58:11.549Z,14.23
